Language: 


Des rapports , des résumés tant et plus, au choix de chacun....


Données statistiques de la station
Quotidien Rapport Février 10, 2018 Unités:  les deux    Anglais   Métrique
« Précédent Jour
Suivant Jour »
Quotidien Hebdomadaire Mensuel Annuel Actuel
  Haut: Bas: Moyen:
Température: TemperatureC °F /  -17.8 °C -0.1 °F /  -17.8 °C 3.7 °F /  -15.7 °C
Pt de rosée: DewpointC °F /  -17.8 °C -1.0 °F /  -18.3 °C 1.7 °F /  -16.8 °C
Humidité: Humidity % 62 % 86 %
Vitesse du vent: WindSpeedKMH mph /  0 km/h - 7.9 mph /  12.7 km/h
Rafales: WindSpeedGustKMH mph /  0 km/h - -
Vent:- - WSW
Pression: PressurehPa in /  0 hPa 1005.0 in /  34029.3 hPa -
Précipitation: 5.1 in /  129.54 mm    
Historical Graphs
 
 
Données statistiques pour Février 10, 2018
Heure Température Point de rosée Pression Vent Vitesse du vent Refales Humidité Pluie (taux horaire)
TemperatureC °F /  -17.8 °C DewpointC °F /  -17.8 °C PressurehPa in /  0 hPa Calm     Humidity % HourlyPrecipMM in /  0 mm
00:04 2.4 °F /  -16.4 °C 3.0 °F /  -16.1 °C 1014.1 in /  34337.4 hPa West 6.9 mph /  11.1 km/h 6.9 mph /  11.1 km/h 98 % 1.3 in /  33.02 mm
00:09 2.3 °F /  -16.5 °C 3.0 °F /  -16.1 °C 1014.1 in /  34337.4 hPa West 6.9 mph /  11.1 km/h 6.9 mph /  11.1 km/h 98 % 1.0 in /  25.4 mm
00:14 2.2 °F /  -16.6 °C 2.0 °F /  -16.7 °C 1013.1 in /  34303.6 hPa West 6.9 mph /  11.1 km/h 6.9 mph /  11.1 km/h 98 % 1.3 in /  33.02 mm
00:19 2.1 °F /  -16.6 °C 2.0 °F /  -16.7 °C 1013.1 in /  34303.6 hPa West 6.9 mph /  11.1 km/h 6.9 mph /  11.1 km/h 98 % 1.3 in /  33.02 mm
00:24 2.1 °F /  -16.6 °C 2.0 °F /  -16.7 °C 1013.1 in /  34303.6 hPa West 6.9 mph /  11.1 km/h 6.9 mph /  11.1 km/h 98 % 1.3 in /  33.02 mm
00:29 2.1 °F /  -16.6 °C 2.0 °F /  -16.7 °C 1013.1 in /  34303.6 hPa West 6.9 mph /  11.1 km/h 6.9 mph /  11.1 km/h 98 % 1.5 in /  38.1 mm
00:34 2.1 °F /  -16.6 °C 2.0 °F /  -16.7 °C 1013.1 in /  34303.6 hPa West 6.9 mph /  11.1 km/h 6.9 mph /  11.1 km/h 98 % 1.5 in /  38.1 mm
00:39 2.1 °F /  -16.6 °C 2.0 °F /  -16.7 °C 1013.1 in /  34303.6 hPa West 6.9 mph /  11.1 km/h 6.9 mph /  11.1 km/h 98 % 1.3 in /  33.02 mm
00:44 2.2 °F /  -16.6 °C 2.0 °F /  -16.7 °C 1013.1 in /  34303.6 hPa West 6.9 mph /  11.1 km/h 6.9 mph /  11.1 km/h 98 % 1.3 in /  33.02 mm
00:49 2.4 °F /  -16.4 °C 3.0 °F /  -16.1 °C 1013.1 in /  34303.6 hPa West 6.9 mph /  11.1 km/h 6.9 mph /  11.1 km/h 98 % 1.3 in /  33.02 mm
00:54 2.6 °F /  -16.3 °C 3.0 °F /  -16.1 °C 1013.1 in /  34303.6 hPa West 6.9 mph /  11.1 km/h 6.9 mph /  11.1 km/h 98 % 0.8 in /  20.32 mm
00:59 2.7 °F /  -16.3 °C 3.0 °F /  -16.1 °C 1014.1 in /  34337.4 hPa West 6.9 mph /  11.1 km/h 6.9 mph /  11.1 km/h 98 % 1.3 in /  33.02 mm
01:04 2.7 °F /  -16.3 °C 3.0 °F /  -16.1 °C 1014.1 in /  34337.4 hPa West 6.9 mph /  11.1 km/h 6.9 mph /  11.1 km/h 98 % 0.8 in /  20.32 mm
01:09 2.8 °F /  -16.2 °C 3.0 °F /  -16.1 °C 1014.1 in /  34337.4 hPa West 6.9 mph /  11.1 km/h 6.9 mph /  11.1 km/h 98 % 0.8 in /  20.32 mm
01:14 2.8 °F /  -16.2 °C 3.0 °F /  -16.1 °C 1014.1 in /  34337.4 hPa West 6.9 mph /  11.1 km/h 6.9 mph /  11.1 km/h 98 % 0.5 in /  12.7 mm
01:19 2.8 °F /  -16.2 °C 3.0 °F /  -16.1 °C 1014.1 in /  34337.4 hPa West 6.9 mph /  11.1 km/h 6.9 mph /  11.1 km/h 98 % 0.5 in /  12.7 mm
01:25 2.9 °F /  -16.2 °C 3.0 °F /  -16.1 °C 1014.1 in /  34337.4 hPa West 6.9 mph /  11.1 km/h 6.9 mph /  11.1 km/h 98 % 0.5 in /  12.7 mm
01:30 2.9 °F /  -16.2 °C 3.0 °F /  -16.1 °C 1014.1 in /  34337.4 hPa West 6.9 mph /  11.1 km/h 6.9 mph /  11.1 km/h 98 % 0.3 in /  7.62 mm
01:35 2.8 °F /  -16.2 °C 3.0 °F /  -16.1 °C 1014.1 in /  34337.4 hPa West 6.9 mph /  11.1 km/h 6.9 mph /  11.1 km/h 98 % 0.3 in /  7.62 mm
01:40 2.8 °F /  -16.2 °C 3.0 °F /  -16.1 °C 1014.1 in /  34337.4 hPa West 6.9 mph /  11.1 km/h 6.9 mph /  11.1 km/h 98 % 0.3 in /  7.62 mm
01:45 2.8 °F /  -16.2 °C 3.0 °F /  -16.1 °C 1014.1 in /  34337.4 hPa West 6.9 mph /  11.1 km/h 6.9 mph /  11.1 km/h 98 % 0.5 in /  12.7 mm
01:50 2.9 °F /  -16.2 °C 3.0 °F /  -16.1 °C 1014.1 in /  34337.4 hPa West 6.9 mph /  11.1 km/h 6.9 mph /  11.1 km/h 98 % 0.5 in /  12.7 mm
01:55 2.9 °F /  -16.2 °C 3.0 °F /  -16.1 °C 1014.1 in /  34337.4 hPa West 6.9 mph /  11.1 km/h 6.9 mph /  11.1 km/h 98 % 0.3 in /  7.62 mm
02:00 2.9 °F /  -16.2 °C 3.0 °F /  -16.1 °C 1014.1 in /  34337.4 hPa West 6.9 mph /  11.1 km/h 6.9 mph /  11.1 km/h 98 % 0.3 in /  7.62 mm
02:05 2.9 °F /  -16.2 °C 3.0 °F /  -16.1 °C 1014.1 in /  34337.4 hPa West 6.9 mph /  11.1 km/h 6.9 mph /  11.1 km/h 98 % 0.3 in /  7.62 mm
02:10 3.0 °F /  -16.1 °C 3.0 °F /  -16.1 °C 1014.1 in /  34337.4 hPa West 6.9 mph /  11.1 km/h 6.9 mph /  11.1 km/h 98 % 0.3 in /  7.62 mm
02:15 3.0 °F /  -16.1 °C 3.0 °F /  -16.1 °C 1014.1 in /  34337.4 hPa West 6.9 mph /  11.1 km/h 6.9 mph /  11.1 km/h 98 % 0.3 in /  7.62 mm
02:20 3.0 °F /  -16.1 °C 3.0 °F /  -16.1 °C 1014.1 in /  34337.4 hPa West 6.9 mph /  11.1 km/h 6.9 mph /  11.1 km/h 98 % 0.3 in /  7.62 mm
02:25 3.0 °F /  -16.1 °C 3.0 °F /  -16.1 °C 1014.1 in /  34337.4 hPa West 6.9 mph /  11.1 km/h 6.9 mph /  11.1 km/h 97 % 0.3 in /  7.62 mm
02:30 3.0 °F /  -16.1 °C 3.0 °F /  -16.1 °C 1014.1 in /  34337.4 hPa West 6.9 mph /  11.1 km/h 6.9 mph /  11.1 km/h 97 % 0.3 in /  7.62 mm
02:35 3.0 °F /  -16.1 °C 3.0 °F /  -16.1 °C 1014.1 in /  34337.4 hPa West 6.9 mph /  11.1 km/h 6.9 mph /  11.1 km/h 97 % 0.3 in /  7.62 mm
02:40 3.0 °F /  -16.1 °C 3.0 °F /  -16.1 °C 1014.1 in /  34337.4 hPa West 6.9 mph /  11.1 km/h 6.9 mph /  11.1 km/h 97 % 0.3 in /  7.62 mm
02:45 3.0 °F /  -16.1 °C 3.0 °F /  -16.1 °C 1015.1 in /  34371.3 hPa West 6.9 mph /  11.1 km/h 6.9 mph /  11.1 km/h 97 % 0.0 in /  0 mm
02:50 3.0 °F /  -16.1 °C 3.0 °F /  -16.1 °C 1015.1 in /  34371.3 hPa West 6.9 mph /  11.1 km/h 6.9 mph /  11.1 km/h 97 % 0.0 in /  0 mm
02:55 3.0 °F /  -16.1 °C 3.0 °F /  -16.1 °C 1015.1 in /  34371.3 hPa West 6.9 mph /  11.1 km/h 6.9 mph /  11.1 km/h 97 % 0.0 in /  0 mm
03:01 3.0 °F /  -16.1 °C 3.0 °F /  -16.1 °C 1015.1 in /  34371.3 hPa West 6.9 mph /  11.1 km/h 6.9 mph /  11.1 km/h 96 % 0.0 in /  0 mm
03:06 3.0 °F /  -16.1 °C 3.0 °F /  -16.1 °C 1015.1 in /  34371.3 hPa West 6.9 mph /  11.1 km/h 6.9 mph /  11.1 km/h 96 % 0.0 in /  0 mm
03:11 3.1 °F /  -16.1 °C 3.0 °F /  -16.1 °C 1015.1 in /  34371.3 hPa West 6.9 mph /  11.1 km/h 6.9 mph /  11.1 km/h 96 % 0.0 in /  0 mm
03:16 3.1 °F /  -16.1 °C 3.0 °F /  -16.1 °C 1015.1 in /  34371.3 hPa West 6.9 mph /  11.1 km/h 6.9 mph /  11.1 km/h 96 % 0.0 in /  0 mm
03:21 3.0 °F /  -16.1 °C 3.0 °F /  -16.1 °C 1015.1 in /  34371.3 hPa West 6.9 mph /  11.1 km/h 6.9 mph /  11.1 km/h 95 % 0.0 in /  0 mm
03:26 3.0 °F /  -16.1 °C 3.0 °F /  -16.1 °C 1015.1 in /  34371.3 hPa West 6.9 mph /  11.1 km/h 6.9 mph /  11.1 km/h 95 % 0.0 in /  0 mm
03:31 3.0 °F /  -16.1 °C 3.0 °F /  -16.1 °C 1015.1 in /  34371.3 hPa West 6.9 mph /  11.1 km/h 6.9 mph /  11.1 km/h 95 % 0.0 in /  0 mm
03:36 3.1 °F /  -16.1 °C 3.0 °F /  -16.1 °C 1015.1 in /  34371.3 hPa West 6.9 mph /  11.1 km/h 6.9 mph /  11.1 km/h 95 % 0.3 in /  7.62 mm
03:41 3.1 °F /  -16.1 °C 3.0 °F /  -16.1 °C 1015.1 in /  34371.3 hPa West 6.9 mph /  11.1 km/h 6.9 mph /  11.1 km/h 95 % 0.3 in /  7.62 mm
03:46 3.1 °F /  -16.1 °C 2.0 °F /  -16.7 °C 1015.1 in /  34371.3 hPa West 6.9 mph /  11.1 km/h 6.9 mph /  11.1 km/h 94 % 0.3 in /  7.62 mm
03:51 3.1 °F /  -16.1 °C 2.0 °F /  -16.7 °C 1015.1 in /  34371.3 hPa West 6.9 mph /  11.1 km/h 6.9 mph /  11.1 km/h 94 % 0.3 in /  7.62 mm
03:56 3.1 °F /  -16.1 °C 2.0 °F /  -16.7 °C 1015.1 in /  34371.3 hPa West 6.9 mph /  11.1 km/h 6.9 mph /  11.1 km/h 94 % 0.3 in /  7.62 mm
04:01 3.1 °F /  -16.1 °C 2.0 °F /  -16.7 °C 1015.1 in /  34371.3 hPa West 6.9 mph /  11.1 km/h 6.9 mph /  11.1 km/h 94 % 0.3 in /  7.62 mm
04:06 3.1 °F /  -16.1 °C 2.0 °F /  -16.7 °C 1015.1 in /  34371.3 hPa West 6.9 mph /  11.1 km/h 6.9 mph /  11.1 km/h 93 % 0.3 in /  7.62 mm
04:11 3.0 °F /  -16.1 °C 2.0 °F /  -16.7 °C 1015.1 in /  34371.3 hPa West 6.9 mph /  11.1 km/h 6.9 mph /  11.1 km/h 92 % 0.3 in /  7.62 mm
04:16 2.8 °F /  -16.2 °C 2.0 °F /  -16.7 °C 1015.1 in /  34371.3 hPa West 6.9 mph /  11.1 km/h 6.9 mph /  11.1 km/h 92 % 0.3 in /  7.62 mm
04:21 2.7 °F /  -16.3 °C 2.0 °F /  -16.7 °C 1015.1 in /  34371.3 hPa WNW 4.3 mph /  6.9 km/h 4.3 mph /  6.9 km/h 92 % 0.3 in /  7.62 mm
04:26 2.6 °F /  -16.3 °C 2.0 °F /  -16.7 °C 1015.1 in /  34371.3 hPa WNW 4.3 mph /  6.9 km/h 4.3 mph /  6.9 km/h 92 % 0.3 in /  7.62 mm
04:31 2.5 °F /  -16.4 °C 2.0 °F /  -16.7 °C 1015.1 in /  34371.3 hPa West 6.4 mph /  10.3 km/h 6.4 mph /  10.3 km/h 92 % 0.3 in /  7.62 mm
04:36 2.4 °F /  -16.4 °C 1.0 °F /  -17.2 °C 1015.1 in /  34371.3 hPa Calm   6.4 mph /  10.3 km/h 92 % 0.0 in /  0 mm
04:41 2.4 °F /  -16.4 °C 2.0 °F /  -16.7 °C 1015.1 in /  34371.3 hPa Calm   4.0 mph /  6.4 km/h 93 % 0.0 in /  0 mm
04:46 2.3 °F /  -16.5 °C 2.0 °F /  -16.7 °C 1015.1 in /  34371.3 hPa West 6.1 mph /  9.8 km/h 6.1 mph /  9.8 km/h 93 % 0.0 in /  0 mm
04:51 2.3 °F /  -16.5 °C 2.0 °F /  -16.7 °C 1015.1 in /  34371.3 hPa West 6.1 mph /  9.8 km/h 6.1 mph /  9.8 km/h 93 % 0.0 in /  0 mm
04:56 2.2 °F /  -16.6 °C 1.0 °F /  -17.2 °C 1015.1 in /  34371.3 hPa West 4.3 mph /  6.9 km/h 6.1 mph /  9.8 km/h 93 % 0.0 in /  0 mm
05:01 2.1 °F /  -16.6 °C 1.0 °F /  -17.2 °C 1015.1 in /  34371.3 hPa West 5.0 mph /  8 km/h 6.1 mph /  9.8 km/h 93 % 0.0 in /  0 mm
05:06 2.1 °F /  -16.6 °C 1.0 °F /  -17.2 °C 1015.1 in /  34371.3 hPa WNW 5.0 mph /  8 km/h 5.0 mph /  8 km/h 93 % 0.0 in /  0 mm
05:11 2.0 °F /  -16.7 °C 1.0 °F /  -17.2 °C 1015.1 in /  34371.3 hPa WSW 5.5 mph /  8.9 km/h 5.5 mph /  8.9 km/h 93 % 0.0 in /  0 mm
05:16 2.0 °F /  -16.7 °C 1.0 °F /  -17.2 °C 1015.1 in /  34371.3 hPa West 4.7 mph /  7.6 km/h 5.5 mph /  8.9 km/h 93 % 0.0 in /  0 mm
05:21 1.9 °F /  -16.7 °C 1.0 °F /  -17.2 °C 1015.1 in /  34371.3 hPa West 4.7 mph /  7.6 km/h 5.5 mph /  8.9 km/h 94 % 0.0 in /  0 mm
05:26 1.9 °F /  -16.7 °C 1.0 °F /  -17.2 °C 1015.1 in /  34371.3 hPa West 5.5 mph /  8.9 km/h 5.5 mph /  8.9 km/h 94 % 0.0 in /  0 mm
05:31 1.8 °F /  -16.8 °C 1.0 °F /  -17.2 °C 1015.1 in /  34371.3 hPa West 2.1 mph /  3.4 km/h 7.9 mph /  12.7 km/h 94 % 0.0 in /  0 mm
05:36 1.7 °F /  -16.8 °C 1.0 °F /  -17.2 °C 1015.1 in /  34371.3 hPa West 4.0 mph /  6.4 km/h 7.9 mph /  12.7 km/h 94 % 0.0 in /  0 mm
05:41 1.6 °F /  -16.9 °C 1.0 °F /  -17.2 °C 1015.1 in /  34371.3 hPa West 4.3 mph /  6.9 km/h 6.9 mph /  11.1 km/h 94 % 0.0 in /  0 mm
05:46 1.4 °F /  -17 °C 1.0 °F /  -17.2 °C 1015.1 in /  34371.3 hPa SSW 3.5 mph /  5.6 km/h 5.8 mph /  9.3 km/h 93 % 0.0 in /  0 mm
05:52 1.3 °F /  -17.1 °C 1.0 °F /  -17.2 °C 1015.1 in /  34371.3 hPa Calm   4.3 mph /  6.9 km/h 93 % 0.0 in /  0 mm
05:57 1.1 °F /  -17.2 °C 0.0 °F /  -17.8 °C 1015.1 in /  34371.3 hPa West 6.9 mph /  11.1 km/h 6.9 mph /  11.1 km/h 93 % 0.0 in /  0 mm
06:02 1.1 °F /  -17.2 °C 0.0 °F /  -17.8 °C 1015.1 in /  34371.3 hPa West 8.7 mph /  14 km/h 8.7 mph /  14 km/h 93 % 0.0 in /  0 mm
06:07 1.0 °F /  -17.2 °C 0.0 °F /  -17.8 °C 1015.1 in /  34371.3 hPa West 6.1 mph /  9.8 km/h 10.1 mph /  16.3 km/h 94 % 0.0 in /  0 mm
06:12 1.0 °F /  -17.2 °C 0.0 °F /  -17.8 °C 1015.1 in /  34371.3 hPa Calm   10.1 mph /  16.3 km/h 94 % 0.0 in /  0 mm
06:17 0.9 °F /  -17.3 °C 0.0 °F /  -17.8 °C 1015.1 in /  34371.3 hPa Calm   6.9 mph /  11.1 km/h 94 % 0.0 in /  0 mm
06:22 0.8 °F /  -17.3 °C 0.0 °F /  -17.8 °C 1015.1 in /  34371.3 hPa West 4.0 mph /  6.4 km/h 6.9 mph /  11.1 km/h 94 % 0.0 in /  0 mm
06:27 0.6 °F /  -17.4 °C 0.0 °F /  -17.8 °C 1015.1 in /  34371.3 hPa Calm   6.4 mph /  10.3 km/h 94 % 0.0 in /  0 mm
06:28 0.6 °F /  -17.4 °C 0.0 °F /  -17.8 °C 1015.1 in /  34371.3 hPa Calm   6.4 mph /  10.3 km/h 94 % 0.0 in /  0 mm
06:33 0.4 °F /  -17.6 °C 0.0 °F /  -17.8 °C 1015.1 in /  34371.3 hPa Calm   4.0 mph /  6.4 km/h 94 % 0.0 in /  0 mm
06:38 0.4 °F /  -17.6 °C 0.0 °F /  -17.8 °C 1015.1 in /  34371.3 hPa Calm     94 % 0.0 in /  0 mm
06:43 0.3 °F /  -17.6 °C 0.0 °F /  -17.8 °C 1015.1 in /  34371.3 hPa Calm     94 % 0.0 in /  0 mm
06:48 0.3 °F /  -17.6 °C 0.0 °F /  -17.8 °C 1015.1 in /  34371.3 hPa Calm     95 % 0.0 in /  0 mm
06:53 0.3 °F /  -17.6 °C 0.0 °F /  -17.8 °C 1015.1 in /  34371.3 hPa Calm     95 % 0.0 in /  0 mm
06:58 0.3 °F /  -17.6 °C 0.0 °F /  -17.8 °C 1015.1 in /  34371.3 hPa Calm     95 % 0.0 in /  0 mm
07:03 0.3 °F /  -17.6 °C 0.0 °F /  -17.8 °C 1015.1 in /  34371.3 hPa Calm     96 % 0.0 in /  0 mm
07:08 0.3 °F /  -17.6 °C 0.0 °F /  -17.8 °C 1015.1 in /  34371.3 hPa Calm     96 % 0.0 in /  0 mm
07:13 0.3 °F /  -17.6 °C 0.0 °F /  -17.8 °C 1015.1 in /  34371.3 hPa Calm     96 % 0.0 in /  0 mm
07:18 0.2 °F /  -17.7 °C 0.0 °F /  -17.8 °C 1015.1 in /  34371.3 hPa West 5.8 mph /  9.3 km/h 5.8 mph /  9.3 km/h 96 % 0.0 in /  0 mm
07:23 0.2 °F /  -17.7 °C 0.0 °F /  -17.8 °C 1015.1 in /  34371.3 hPa West 7.6 mph /  12.2 km/h 7.6 mph /  12.2 km/h 96 % 0.0 in /  0 mm
07:28 0.2 °F /  -17.7 °C 0.0 °F /  -17.8 °C 1015.1 in /  34371.3 hPa WSW 7.2 mph /  11.6 km/h 7.6 mph /  12.2 km/h 97 % 0.0 in /  0 mm
07:33 0.2 °F /  -17.7 °C 0.0 °F /  -17.8 °C 1015.1 in /  34371.3 hPa Calm   7.6 mph /  12.2 km/h 97 % 0.0 in /  0 mm
07:38 0.1 °F /  -17.7 °C 0.0 °F /  -17.8 °C 1015.1 in /  34371.3 hPa West 2.6 mph /  4.2 km/h 7.2 mph /  11.6 km/h 97 % 0.0 in /  0 mm
07:43 0.1 °F /  -17.7 °C 0.0 °F /  -17.8 °C 1016.1 in /  34405.1 hPa West 2.6 mph /  4.2 km/h 2.6 mph /  4.2 km/h 97 % 0.0 in /  0 mm
07:48 0.0 °F /  -17.8 °C -1.0 °F /  -18.3 °C 1016.1 in /  34405.1 hPa Calm   2.6 mph /  4.2 km/h 97 % 0.0 in /  0 mm
07:53 0.0 °F /  -17.8 °C -1.0 °F /  -18.3 °C 1016.1 in /  34405.1 hPa Calm   2.6 mph /  4.2 km/h 97 % 0.0 in /  0 mm
07:58 0.0 °F /  -17.8 °C -1.0 °F /  -18.3 °C 1016.1 in /  34405.1 hPa Calm     97 % 0.0 in /  0 mm
08:04 -0.1 °F /  -17.8 °C -1.0 °F /  -18.3 °C 1016.1 in /  34405.1 hPa Calm     97 % 0.0 in /  0 mm
08:09 -0.1 °F /  -17.8 °C -1.0 °F /  -18.3 °C 1016.1 in /  34405.1 hPa Calm     97 % 0.0 in /  0 mm
08:14 -0.1 °F /  -17.8 °C -1.0 °F /  -18.3 °C 1016.8 in /  34428.8 hPa Calm     97 % 0.0 in /  0 mm
08:19 -0.1 °F /  -17.8 °C -1.0 °F /  -18.3 °C 1016.8 in /  34428.8 hPa Calm     97 % 0.0 in /  0 mm
08:24 -0.1 °F /  -17.8 °C -1.0 °F /  -18.3 °C 1016.8 in /  34428.8 hPa Calm     97 % 0.0 in /  0 mm
08:29 -0.1 °F /  -17.8 °C -1.0 °F /  -18.3 °C 1016.8 in /  34428.8 hPa Calm     97 % 0.0 in /  0 mm
08:34 -0.1 °F /  -17.8 °C -1.0 °F /  -18.3 °C 1016.8 in /  34428.8 hPa Calm     97 % 0.0 in /  0 mm
08:39 -0.1 °F /  -17.8 °C -1.0 °F /  -18.3 °C 1016.8 in /  34428.8 hPa Calm     98 % 0.0 in /  0 mm
08:44 0.0 °F /  -17.8 °C -1.0 °F /  -18.3 °C 1016.8 in /  34428.8 hPa Calm     98 % 0.0 in /  0 mm
08:49 0.2 °F /  -17.7 °C 0.0 °F /  -17.8 °C 1016.8 in /  34428.8 hPa Calm     98 % 0.0 in /  0 mm
08:51 0.2 °F /  -17.7 °C 0.0 °F /  -17.8 °C 1016.8 in /  34428.8 hPa Calm     98 % 0.0 in /  0 mm
08:56 0.3 °F /  -17.6 °C 1.0 °F /  -17.2 °C 1016.8 in /  34428.8 hPa Calm     98 % 0.0 in /  0 mm
09:01 0.4 °F /  -17.6 °C 1.0 °F /  -17.2 °C 1016.8 in /  34428.8 hPa Calm     98 % 0.0 in /  0 mm
09:06 0.4 °F /  -17.6 °C 1.0 °F /  -17.2 °C 1016.8 in /  34428.8 hPa Calm     98 % 0.0 in /  0 mm
09:11 0.5 °F /  -17.5 °C 1.0 °F /  -17.2 °C 1016.8 in /  34428.8 hPa Calm     98 % 0.0 in /  0 mm
09:16 0.6 °F /  -17.4 °C 1.0 °F /  -17.2 °C 1016.8 in /  34428.8 hPa Calm     98 % 0.0 in /  0 mm
09:21 0.7 °F /  -17.4 °C 1.0 °F /  -17.2 °C 1016.8 in /  34428.8 hPa Calm     98 % 0.0 in /  0 mm
09:26 1.0 °F /  -17.2 °C 1.0 °F /  -17.2 °C 1016.8 in /  34428.8 hPa Calm     98 % 0.0 in /  0 mm
09:31 1.1 °F /  -17.2 °C 1.0 °F /  -17.2 °C 1016.8 in /  34428.8 hPa Calm     98 % 0.0 in /  0 mm
09:36 1.3 °F /  -17.1 °C 1.0 °F /  -17.2 °C 1016.8 in /  34428.8 hPa Calm     98 % 0.0 in /  0 mm
09:41 1.5 °F /  -16.9 °C 2.0 °F /  -16.7 °C 1016.8 in /  34428.8 hPa Calm     98 % 0.0 in /  0 mm
09:46 1.6 °F /  -16.9 °C 2.0 °F /  -16.7 °C 1016.8 in /  34428.8 hPa Calm     98 % 0.0 in /  0 mm
09:51 1.8 °F /  -16.8 °C 2.0 °F /  -16.7 °C 1016.8 in /  34428.8 hPa Calm     98 % 0.0 in /  0 mm
09:56 2.0 °F /  -16.7 °C 2.0 °F /  -16.7 °C 1016.8 in /  34428.8 hPa Calm     98 % 0.0 in /  0 mm
10:01 2.1 °F /  -16.6 °C 2.0 °F /  -16.7 °C 1018.2 in /  34476.3 hPa Calm     98 % 0.0 in /  0 mm
10:06 2.3 °F /  -16.5 °C 2.0 °F /  -16.7 °C 1018.2 in /  34476.3 hPa Calm     97 % 0.0 in /  0 mm
10:11 2.4 °F /  -16.4 °C 2.0 °F /  -16.7 °C 1018.2 in /  34476.3 hPa Calm     97 % 0.0 in /  0 mm
10:16 2.7 °F /  -16.3 °C 3.0 °F /  -16.1 °C 1016.8 in /  34428.8 hPa Calm     97 % 0.0 in /  0 mm
10:22 2.8 °F /  -16.2 °C 3.0 °F /  -16.1 °C 1016.8 in /  34428.8 hPa Calm     96 % 0.0 in /  0 mm
10:27 3.0 °F /  -16.1 °C 3.0 °F /  -16.1 °C 1016.8 in /  34428.8 hPa Calm     95 % 0.0 in /  0 mm
10:32 3.3 °F /  -15.9 °C 3.0 °F /  -16.1 °C 1016.1 in /  34405.1 hPa Calm     95 % 0.0 in /  0 mm
10:37 3.6 °F /  -15.8 °C 3.0 °F /  -16.1 °C 1016.1 in /  34405.1 hPa Calm     95 % 0.0 in /  0 mm
10:42 3.8 °F /  -15.7 °C 3.0 °F /  -16.1 °C 1016.1 in /  34405.1 hPa Calm     94 % 0.0 in /  0 mm
10:47 4.0 °F /  -15.6 °C 3.0 °F /  -16.1 °C 1016.8 in /  34428.8 hPa Calm     92 % 0.0 in /  0 mm
10:52 4.2 °F /  -15.4 °C 3.0 °F /  -16.1 °C 1016.8 in /  34428.8 hPa Calm     90 % 0.0 in /  0 mm
10:57 4.4 °F /  -15.3 °C 3.0 °F /  -16.1 °C 1016.8 in /  34428.8 hPa Calm     89 % 0.0 in /  0 mm
11:02 4.5 °F /  -15.3 °C 3.0 °F /  -16.1 °C 1016.8 in /  34428.8 hPa Calm     88 % 0.0 in /  0 mm
11:07 4.7 °F /  -15.2 °C 3.0 °F /  -16.1 °C 1016.8 in /  34428.8 hPa Calm     87 % 0.0 in /  0 mm
11:12 4.8 °F /  -15.1 °C 3.0 °F /  -16.1 °C 1016.8 in /  34428.8 hPa Calm     87 % 0.0 in /  0 mm
11:17 5.0 °F /  -15 °C 3.0 °F /  -16.1 °C 1016.8 in /  34428.8 hPa Calm     86 % 0.0 in /  0 mm
11:22 5.3 °F /  -14.8 °C 3.0 °F /  -16.1 °C 1016.8 in /  34428.8 hPa Calm     86 % 0.0 in /  0 mm
11:27 5.4 °F /  -14.8 °C 3.0 °F /  -16.1 °C 1016.8 in /  34428.8 hPa Calm     85 % 0.0 in /  0 mm
11:32 5.5 °F /  -14.7 °C 3.0 °F /  -16.1 °C 1016.8 in /  34428.8 hPa Calm     84 % 0.0 in /  0 mm
11:37 5.7 °F /  -14.6 °C 3.0 °F /  -16.1 °C 1016.8 in /  34428.8 hPa Calm     82 % 0.0 in /  0 mm
11:42 5.7 °F /  -14.6 °C 3.0 °F /  -16.1 °C 1016.8 in /  34428.8 hPa Calm     82 % 0.0 in /  0 mm
11:47 6.0 °F /  -14.4 °C 3.0 °F /  -16.1 °C 1016.8 in /  34428.8 hPa Calm     79 % 0.3 in /  7.62 mm
11:52 6.0 °F /  -14.4 °C 3.0 °F /  -16.1 °C 1016.8 in /  34428.8 hPa Calm     77 % 0.3 in /  7.62 mm
11:57 6.1 °F /  -14.4 °C 2.0 °F /  -16.7 °C 1016.8 in /  34428.8 hPa Calm     76 % 0.3 in /  7.62 mm
12:02 6.3 °F /  -14.3 °C 3.0 °F /  -16.1 °C 1016.8 in /  34428.8 hPa Calm     75 % 0.3 in /  7.62 mm
12:07 6.4 °F /  -14.2 °C 2.0 °F /  -16.7 °C 1016.8 in /  34428.8 hPa Calm     74 % 0.3 in /  7.62 mm
12:12 6.5 °F /  -14.2 °C 2.0 °F /  -16.7 °C 1016.8 in /  34428.8 hPa Calm     73 % 0.3 in /  7.62 mm
12:17 6.7 °F /  -14.1 °C 3.0 °F /  -16.1 °C 1016.1 in /  34405.1 hPa Calm     74 % 0.3 in /  7.62 mm
12:22 6.8 °F /  -14 °C 2.0 °F /  -16.7 °C 1016.1 in /  34405.1 hPa Calm     73 % 0.3 in /  7.62 mm
12:27 6.9 °F /  -13.9 °C 3.0 °F /  -16.1 °C 1016.1 in /  34405.1 hPa Calm     72 % 0.3 in /  7.62 mm
12:32 7.1 °F /  -13.8 °C 2.0 °F /  -16.7 °C 1016.1 in /  34405.1 hPa Calm     71 % 0.3 in /  7.62 mm
12:37 7.1 °F /  -13.8 °C 2.0 °F /  -16.7 °C 1016.1 in /  34405.1 hPa Calm     69 % 0.3 in /  7.62 mm
12:43 7.3 °F /  -13.7 °C 2.0 °F /  -16.7 °C 1016.1 in /  34405.1 hPa Calm     68 % 0.3 in /  7.62 mm
12:48 7.5 °F /  -13.6 °C 2.0 °F /  -16.7 °C 1015.1 in /  34371.3 hPa Calm     67 % 0.0 in /  0 mm
12:53 7.7 °F /  -13.5 °C 2.0 °F /  -16.7 °C 1015.1 in /  34371.3 hPa Calm     68 % 0.0 in /  0 mm
12:58 7.6 °F /  -13.6 °C 2.0 °F /  -16.7 °C 1015.1 in /  34371.3 hPa Calm     67 % 0.0 in /  0 mm
13:03 7.7 °F /  -13.5 °C 2.0 °F /  -16.7 °C 1015.1 in /  34371.3 hPa West 8.7 mph /  14 km/h 8.7 mph /  14 km/h 65 % 0.0 in /  0 mm
13:08 7.4 °F /  -13.7 °C 1.0 °F /  -17.2 °C 1015.1 in /  34371.3 hPa West 8.7 mph /  14 km/h 8.7 mph /  14 km/h 63 % 0.3 in /  7.62 mm
13:13 7.3 °F /  -13.7 °C 1.0 °F /  -17.2 °C 1015.1 in /  34371.3 hPa West 8.7 mph /  14 km/h 8.7 mph /  14 km/h 64 % 0.3 in /  7.62 mm
13:18 7.5 °F /  -13.6 °C 2.0 °F /  -16.7 °C 1015.1 in /  34371.3 hPa West 8.7 mph /  14 km/h 8.7 mph /  14 km/h 67 % 0.3 in /  7.62 mm
13:23 7.8 °F /  -13.4 °C 2.0 °F /  -16.7 °C 1015.1 in /  34371.3 hPa West 8.7 mph /  14 km/h 8.7 mph /  14 km/h 67 % 0.3 in /  7.62 mm
13:28 7.7 °F /  -13.5 °C 1.0 °F /  -17.2 °C 1015.1 in /  34371.3 hPa West 8.7 mph /  14 km/h 8.7 mph /  14 km/h 63 % 0.3 in /  7.62 mm
13:33 7.8 °F /  -13.4 °C 1.0 °F /  -17.2 °C 1015.1 in /  34371.3 hPa West 8.7 mph /  14 km/h 8.7 mph /  14 km/h 63 % 0.3 in /  7.62 mm
13:38 7.9 °F /  -13.4 °C 2.0 °F /  -16.7 °C 1015.1 in /  34371.3 hPa West 8.7 mph /  14 km/h 8.7 mph /  14 km/h 64 % 0.3 in /  7.62 mm
13:43 7.8 °F /  -13.4 °C 1.0 °F /  -17.2 °C 1015.1 in /  34371.3 hPa West 8.7 mph /  14 km/h 8.7 mph /  14 km/h 62 % 0.3 in /  7.62 mm
13:49 7.7 °F /  -13.5 °C 1.0 °F /  -17.2 °C 1015.1 in /  34371.3 hPa WSW 14.0 mph /  22.5 km/h 14.0 mph /  22.5 km/h 63 % 0.3 in /  7.62 mm
13:54 7.6 °F /  -13.6 °C 2.0 °F /  -16.7 °C 1015.1 in /  34371.3 hPa WSW 14.3 mph /  23 km/h 16.6 mph /  26.7 km/h 65 % 0.3 in /  7.62 mm
13:59 7.9 °F /  -13.4 °C 2.0 °F /  -16.7 °C 1015.1 in /  34371.3 hPa WSW 14.3 mph /  23 km/h 16.6 mph /  26.7 km/h 64 % 0.8 in /  20.32 mm
14:04 7.7 °F /  -13.5 °C 1.0 °F /  -17.2 °C 1015.1 in /  34371.3 hPa WSW 14.3 mph /  23 km/h 14.3 mph /  23 km/h 62 % 0.8 in /  20.32 mm
14:09 7.8 °F /  -13.4 °C 1.0 °F /  -17.2 °C 1015.1 in /  34371.3 hPa WSW 14.3 mph /  23 km/h 14.3 mph /  23 km/h 63 % 0.3 in /  7.62 mm
14:14 7.7 °F /  -13.5 °C 1.0 °F /  -17.2 °C 1015.1 in /  34371.3 hPa WSW 14.3 mph /  23 km/h 14.3 mph /  23 km/h 63 % 0.3 in /  7.62 mm
14:19 7.8 °F /  -13.4 °C 1.0 °F /  -17.2 °C 1015.1 in /  34371.3 hPa WSW 14.3 mph /  23 km/h 14.3 mph /  23 km/h 63 % 0.3 in /  7.62 mm
14:24 7.8 °F /  -13.4 °C 1.0 °F /  -17.2 °C 1015.1 in /  34371.3 hPa WSW 14.3 mph /  23 km/h 14.3 mph /  23 km/h 64 % 0.3 in /  7.62 mm
14:29 7.6 °F /  -13.6 °C 1.0 °F /  -17.2 °C 1014.1 in /  34337.4 hPa WSW 14.3 mph /  23 km/h 14.3 mph /  23 km/h 63 % 0.3 in /  7.62 mm
14:34 7.7 °F /  -13.5 °C 2.0 °F /  -16.7 °C 1014.1 in /  34337.4 hPa WSW 14.3 mph /  23 km/h 14.3 mph /  23 km/h 65 % 0.3 in /  7.62 mm
14:39 7.5 °F /  -13.6 °C 2.0 °F /  -16.7 °C 1014.1 in /  34337.4 hPa WSW 14.3 mph /  23 km/h 14.3 mph /  23 km/h 65 % 0.3 in /  7.62 mm
14:44 7.3 °F /  -13.7 °C 1.0 °F /  -17.2 °C 1015.1 in /  34371.3 hPa WSW 14.3 mph /  23 km/h 14.3 mph /  23 km/h 65 % 0.3 in /  7.62 mm
14:49 7.1 °F /  -13.8 °C 1.0 °F /  -17.2 °C 1015.1 in /  34371.3 hPa WSW 14.3 mph /  23 km/h 14.3 mph /  23 km/h 65 % 0.3 in /  7.62 mm
14:54 7.0 °F /  -13.9 °C 1.0 °F /  -17.2 °C 1015.1 in /  34371.3 hPa WSW 14.3 mph /  23 km/h 14.3 mph /  23 km/h 66 % 0.3 in /  7.62 mm
14:59 6.8 °F /  -14 °C 1.0 °F /  -17.2 °C 1014.1 in /  34337.4 hPa WSW 14.3 mph /  23 km/h 14.3 mph /  23 km/h 66 % 0.0 in /  0 mm
15:04 6.8 °F /  -14 °C 1.0 °F /  -17.2 °C 1014.1 in /  34337.4 hPa WSW 12.2 mph /  19.6 km/h 12.2 mph /  19.6 km/h 67 % 0.3 in /  7.62 mm
15:09 7.2 °F /  -13.8 °C 1.0 °F /  -17.2 °C 1014.1 in /  34337.4 hPa WSW 12.2 mph /  19.6 km/h 12.2 mph /  19.6 km/h 66 % 0.3 in /  7.62 mm
15:14 7.2 °F /  -13.8 °C 2.0 °F /  -16.7 °C 1014.1 in /  34337.4 hPa WSW 12.2 mph /  19.6 km/h 12.2 mph /  19.6 km/h 67 % 0.3 in /  7.62 mm
15:19 7.1 °F /  -13.8 °C 1.0 °F /  -17.2 °C 1014.1 in /  34337.4 hPa WSW 12.2 mph /  19.6 km/h 12.2 mph /  19.6 km/h 67 % 0.3 in /  7.62 mm
15:24 7.3 °F /  -13.7 °C 1.0 °F /  -17.2 °C 1014.1 in /  34337.4 hPa WSW 12.2 mph /  19.6 km/h 12.2 mph /  19.6 km/h 66 % 0.3 in /  7.62 mm
15:29 7.2 °F /  -13.8 °C 1.0 °F /  -17.2 °C 1014.1 in /  34337.4 hPa WSW 12.2 mph /  19.6 km/h 12.2 mph /  19.6 km/h 66 % 0.3 in /  7.62 mm
15:34 7.0 °F /  -13.9 °C 1.0 °F /  -17.2 °C 1014.1 in /  34337.4 hPa WSW 12.2 mph /  19.6 km/h 12.2 mph /  19.6 km/h 65 % 0.3 in /  7.62 mm
15:40 6.8 °F /  -14 °C 1.0 °F /  -17.2 °C 1014.1 in /  34337.4 hPa SW 12.6 mph /  20.3 km/h 12.6 mph /  20.3 km/h 67 % 0.3 in /  7.62 mm
15:45 6.8 °F /  -14 °C 1.0 °F /  -17.2 °C 1014.1 in /  34337.4 hPa SW 12.6 mph /  20.3 km/h 12.6 mph /  20.3 km/h 67 % 0.3 in /  7.62 mm
15:50 6.9 °F /  -13.9 °C 1.0 °F /  -17.2 °C 1014.1 in /  34337.4 hPa SW 12.6 mph /  20.3 km/h 12.6 mph /  20.3 km/h 67 % 0.3 in /  7.62 mm
15:55 7.2 °F /  -13.8 °C 1.0 °F /  -17.2 °C 1014.1 in /  34337.4 hPa SW 12.6 mph /  20.3 km/h 12.6 mph /  20.3 km/h 66 % 0.3 in /  7.62 mm
16:00 7.1 °F /  -13.8 °C 1.0 °F /  -17.2 °C 1014.1 in /  34337.4 hPa SW 12.6 mph /  20.3 km/h 12.6 mph /  20.3 km/h 64 % 0.3 in /  7.62 mm
16:05 6.9 °F /  -13.9 °C 1.0 °F /  -17.2 °C 1014.1 in /  34337.4 hPa SW 12.6 mph /  20.3 km/h 12.6 mph /  20.3 km/h 65 % 0.0 in /  0 mm
16:10 6.7 °F /  -14.1 °C 1.0 °F /  -17.2 °C 1014.1 in /  34337.4 hPa SW 12.6 mph /  20.3 km/h 12.6 mph /  20.3 km/h 64 % 0.0 in /  0 mm
16:15 6.6 °F /  -14.1 °C 1.0 °F /  -17.2 °C 1013.1 in /  34303.6 hPa SW 12.6 mph /  20.3 km/h 12.6 mph /  20.3 km/h 65 % 0.0 in /  0 mm
16:20 6.6 °F /  -14.1 °C 1.0 °F /  -17.2 °C 1013.1 in /  34303.6 hPa SW 12.6 mph /  20.3 km/h 12.6 mph /  20.3 km/h 64 % 0.0 in /  0 mm
16:25 6.6 °F /  -14.1 °C 1.0 °F /  -17.2 °C 1013.1 in /  34303.6 hPa SW 12.6 mph /  20.3 km/h 12.6 mph /  20.3 km/h 65 % 0.0 in /  0 mm
16:30 6.4 °F /  -14.2 °C 1.0 °F /  -17.2 °C 1013.1 in /  34303.6 hPa SW 12.6 mph /  20.3 km/h 12.6 mph /  20.3 km/h 67 % 0.0 in /  0 mm
16:35 6.2 °F /  -14.3 °C 1.0 °F /  -17.2 °C 1013.1 in /  34303.6 hPa SW 12.6 mph /  20.3 km/h 12.6 mph /  20.3 km/h 68 % 0.0 in /  0 mm
16:40 6.1 °F /  -14.4 °C 0.0 °F /  -17.8 °C 1013.1 in /  34303.6 hPa SW 12.6 mph /  20.3 km/h 12.6 mph /  20.3 km/h 66 % 0.0 in /  0 mm
16:45 6.0 °F /  -14.4 °C 1.0 °F /  -17.2 °C 1013.1 in /  34303.6 hPa SW 12.6 mph /  20.3 km/h 12.6 mph /  20.3 km/h 67 % 0.0 in /  0 mm
16:50 5.8 °F /  -14.6 °C 1.0 °F /  -17.2 °C 1013.1 in /  34303.6 hPa SW 12.6 mph /  20.3 km/h 12.6 mph /  20.3 km/h 68 % 0.0 in /  0 mm
16:55 5.8 °F /  -14.6 °C 1.0 °F /  -17.2 °C 1013.1 in /  34303.6 hPa SW 12.6 mph /  20.3 km/h 12.6 mph /  20.3 km/h 69 % 0.0 in /  0 mm
17:00 5.7 °F /  -14.6 °C 1.0 °F /  -17.2 °C 1013.1 in /  34303.6 hPa SW 12.6 mph /  20.3 km/h 12.6 mph /  20.3 km/h 70 % 0.0 in /  0 mm
17:05 5.6 °F /  -14.7 °C 1.0 °F /  -17.2 °C 1013.1 in /  34303.6 hPa SW 12.6 mph /  20.3 km/h 12.6 mph /  20.3 km/h 71 % 0.0 in /  0 mm
17:10 5.5 °F /  -14.7 °C 1.0 °F /  -17.2 °C 1013.1 in /  34303.6 hPa SW 12.6 mph /  20.3 km/h 12.6 mph /  20.3 km/h 71 % 0.0 in /  0 mm
17:15 5.4 °F /  -14.8 °C 1.0 °F /  -17.2 °C 1013.1 in /  34303.6 hPa SW 12.6 mph /  20.3 km/h 12.6 mph /  20.3 km/h 71 % 0.0 in /  0 mm
17:20 5.4 °F /  -14.8 °C 1.0 °F /  -17.2 °C 1013.1 in /  34303.6 hPa SW 12.6 mph /  20.3 km/h 12.6 mph /  20.3 km/h 71 % 0.0 in /  0 mm
17:25 5.3 °F /  -14.8 °C 1.0 °F /  -17.2 °C 1013.1 in /  34303.6 hPa SW 12.6 mph /  20.3 km/h 12.6 mph /  20.3 km/h 72 % 0.0 in /  0 mm
17:30 5.2 °F /  -14.9 °C 1.0 °F /  -17.2 °C 1012.1 in /  34269.7 hPa SW 12.6 mph /  20.3 km/h 12.6 mph /  20.3 km/h 72 % 0.0 in /  0 mm
17:35 5.1 °F /  -14.9 °C 1.0 °F /  -17.2 °C 1012.1 in /  34269.7 hPa SW 12.6 mph /  20.3 km/h 12.6 mph /  20.3 km/h 72 % 0.0 in /  0 mm
17:40 5.1 °F /  -14.9 °C 1.0 °F /  -17.2 °C 1012.1 in /  34269.7 hPa SW 12.6 mph /  20.3 km/h 12.6 mph /  20.3 km/h 72 % 0.0 in /  0 mm
17:45 5.1 °F /  -14.9 °C 1.0 °F /  -17.2 °C 1012.1 in /  34269.7 hPa SW 12.6 mph /  20.3 km/h 12.6 mph /  20.3 km/h 72 % 0.0 in /  0 mm
17:51 5.0 °F /  -15 °C 1.0 °F /  -17.2 °C 1012.1 in /  34269.7 hPa SW 12.6 mph /  20.3 km/h 12.6 mph /  20.3 km/h 73 % 0.0 in /  0 mm
17:56 5.0 °F /  -15 °C 1.0 °F /  -17.2 °C 1012.1 in /  34269.7 hPa SW 12.6 mph /  20.3 km/h 12.6 mph /  20.3 km/h 73 % 0.0 in /  0 mm
18:01 4.9 °F /  -15.1 °C 1.0 °F /  -17.2 °C 1011.1 in /  34235.8 hPa SW 12.6 mph /  20.3 km/h 12.6 mph /  20.3 km/h 74 % 0.0 in /  0 mm
18:06 4.8 °F /  -15.1 °C 1.0 °F /  -17.2 °C 1011.1 in /  34235.8 hPa SW 12.6 mph /  20.3 km/h 12.6 mph /  20.3 km/h 75 % 0.0 in /  0 mm
18:11 4.7 °F /  -15.2 °C 1.0 °F /  -17.2 °C 1011.1 in /  34235.8 hPa SW 12.6 mph /  20.3 km/h 12.6 mph /  20.3 km/h 75 % 0.0 in /  0 mm
18:16 4.7 °F /  -15.2 °C 1.0 °F /  -17.2 °C 1011.1 in /  34235.8 hPa SW 12.6 mph /  20.3 km/h 12.6 mph /  20.3 km/h 75 % 0.0 in /  0 mm
18:21 4.6 °F /  -15.2 °C 1.0 °F /  -17.2 °C 1011.1 in /  34235.8 hPa SW 12.6 mph /  20.3 km/h 12.6 mph /  20.3 km/h 75 % 0.0 in /  0 mm
18:26 4.6 °F /  -15.2 °C 1.0 °F /  -17.2 °C 1011.1 in /  34235.8 hPa SW 12.6 mph /  20.3 km/h 12.6 mph /  20.3 km/h 76 % 0.0 in /  0 mm
18:31 4.5 °F /  -15.3 °C 1.0 °F /  -17.2 °C 1011.1 in /  34235.8 hPa SW 12.6 mph /  20.3 km/h 12.6 mph /  20.3 km/h 76 % 0.0 in /  0 mm
18:36 4.4 °F /  -15.3 °C 1.0 °F /  -17.2 °C 1011.1 in /  34235.8 hPa SW 12.6 mph /  20.3 km/h 12.6 mph /  20.3 km/h 76 % 0.0 in /  0 mm
18:41 4.4 °F /  -15.3 °C 1.0 °F /  -17.2 °C 1011.1 in /  34235.8 hPa SW 12.6 mph /  20.3 km/h 12.6 mph /  20.3 km/h 76 % 0.0 in /  0 mm
18:46 4.4 °F /  -15.3 °C 1.0 °F /  -17.2 °C 1011.1 in /  34235.8 hPa SW 12.6 mph /  20.3 km/h 12.6 mph /  20.3 km/h 76 % 0.0 in /  0 mm
18:51 4.3 °F /  -15.4 °C 1.0 °F /  -17.2 °C 1011.1 in /  34235.8 hPa SW 12.6 mph /  20.3 km/h 12.6 mph /  20.3 km/h 76 % 0.0 in /  0 mm
18:56 4.3 °F /  -15.4 °C 1.0 °F /  -17.2 °C 1011.1 in /  34235.8 hPa SW 12.6 mph /  20.3 km/h 12.6 mph /  20.3 km/h 76 % 0.0 in /  0 mm
19:01 4.3 °F /  -15.4 °C 1.0 °F /  -17.2 °C 1011.1 in /  34235.8 hPa SW 12.6 mph /  20.3 km/h 12.6 mph /  20.3 km/h 76 % 0.0 in /  0 mm
19:06 4.2 °F /  -15.4 °C 1.0 °F /  -17.2 °C 1011.1 in /  34235.8 hPa SW 12.6 mph /  20.3 km/h 12.6 mph /  20.3 km/h 77 % 0.0 in /  0 mm
19:11 4.1 °F /  -15.5 °C 1.0 °F /  -17.2 °C 1011.1 in /  34235.8 hPa SW 12.6 mph /  20.3 km/h 12.6 mph /  20.3 km/h 77 % 0.0 in /  0 mm
19:16 4.1 °F /  -15.5 °C 1.0 °F /  -17.2 °C 1011.1 in /  34235.8 hPa SW 12.6 mph /  20.3 km/h 12.6 mph /  20.3 km/h 77 % 0.0 in /  0 mm
19:21 4.0 °F /  -15.6 °C 1.0 °F /  -17.2 °C 1011.1 in /  34235.8 hPa SW 12.6 mph /  20.3 km/h 12.6 mph /  20.3 km/h 78 % 0.0 in /  0 mm
19:26 3.9 °F /  -15.6 °C 1.0 °F /  -17.2 °C 1011.1 in /  34235.8 hPa SW 12.6 mph /  20.3 km/h 12.6 mph /  20.3 km/h 80 % 0.0 in /  0 mm
19:31 3.8 °F /  -15.7 °C 1.0 °F /  -17.2 °C 1010.0 in /  34198.6 hPa SW 12.6 mph /  20.3 km/h 12.6 mph /  20.3 km/h 80 % 0.0 in /  0 mm
19:36 3.8 °F /  -15.7 °C 1.0 °F /  -17.2 °C 1010.0 in /  34198.6 hPa SW 12.6 mph /  20.3 km/h 12.6 mph /  20.3 km/h 80 % 0.0 in /  0 mm
19:41 3.8 °F /  -15.7 °C 1.0 °F /  -17.2 °C 1010.0 in /  34198.6 hPa SW 12.6 mph /  20.3 km/h 12.6 mph /  20.3 km/h 80 % 0.0 in /  0 mm
19:46 3.8 °F /  -15.7 °C 1.0 °F /  -17.2 °C 1010.0 in /  34198.6 hPa SW 12.6 mph /  20.3 km/h 12.6 mph /  20.3 km/h 80 % 0.0 in /  0 mm
19:51 3.8 °F /  -15.7 °C 1.0 °F /  -17.2 °C 1010.0 in /  34198.6 hPa SW 12.6 mph /  20.3 km/h 12.6 mph /  20.3 km/h 81 % 0.0 in /  0 mm
19:56 3.8 °F /  -15.7 °C 1.0 °F /  -17.2 °C 1010.0 in /  34198.6 hPa SW 12.6 mph /  20.3 km/h 12.6 mph /  20.3 km/h 82 % 0.0 in /  0 mm
20:01 3.8 °F /  -15.7 °C 1.0 °F /  -17.2 °C 1009.0 in /  34164.7 hPa SW 12.6 mph /  20.3 km/h 12.6 mph /  20.3 km/h 83 % 0.0 in /  0 mm
20:06 3.8 °F /  -15.7 °C 1.0 °F /  -17.2 °C 1009.0 in /  34164.7 hPa SW 12.6 mph /  20.3 km/h 12.6 mph /  20.3 km/h 84 % 0.0 in /  0 mm
20:11 3.8 °F /  -15.7 °C 1.0 °F /  -17.2 °C 1009.0 in /  34164.7 hPa SW 12.6 mph /  20.3 km/h 12.6 mph /  20.3 km/h 84 % 0.0 in /  0 mm
20:16 3.8 °F /  -15.7 °C 2.0 °F /  -16.7 °C 1009.0 in /  34164.7 hPa SW 12.6 mph /  20.3 km/h 12.6 mph /  20.3 km/h 85 % 0.0 in /  0 mm
20:22 3.8 °F /  -15.7 °C 2.0 °F /  -16.7 °C 1009.0 in /  34164.7 hPa SW 12.6 mph /  20.3 km/h 12.6 mph /  20.3 km/h 85 % 0.0 in /  0 mm
20:27 3.8 °F /  -15.7 °C 2.0 °F /  -16.7 °C 1009.0 in /  34164.7 hPa SW 12.6 mph /  20.3 km/h 12.6 mph /  20.3 km/h 85 % 0.0 in /  0 mm
20:32 3.8 °F /  -15.7 °C 2.0 °F /  -16.7 °C 1009.0 in /  34164.7 hPa SW 12.6 mph /  20.3 km/h 12.6 mph /  20.3 km/h 85 % 0.0 in /  0 mm
20:37 3.7 °F /  -15.7 °C 2.0 °F /  -16.7 °C 1009.0 in /  34164.7 hPa SW 12.6 mph /  20.3 km/h 12.6 mph /  20.3 km/h 85 % 0.0 in /  0 mm
20:42 3.7 °F /  -15.7 °C 2.0 °F /  -16.7 °C 1009.0 in /  34164.7 hPa SW 12.6 mph /  20.3 km/h 12.6 mph /  20.3 km/h 86 % 0.0 in /  0 mm
20:47 3.6 °F /  -15.8 °C 2.0 °F /  -16.7 °C 1008.0 in /  34130.9 hPa SW 12.6 mph /  20.3 km/h 12.6 mph /  20.3 km/h 86 % 0.0 in /  0 mm
20:52 3.6 °F /  -15.8 °C 2.0 °F /  -16.7 °C 1008.0 in /  34130.9 hPa SW 12.6 mph /  20.3 km/h 12.6 mph /  20.3 km/h 87 % 0.0 in /  0 mm
20:57 3.5 °F /  -15.8 °C 2.0 °F /  -16.7 °C 1008.0 in /  34130.9 hPa SW 12.6 mph /  20.3 km/h 12.6 mph /  20.3 km/h 88 % 0.0 in /  0 mm
21:02 3.5 °F /  -15.8 °C 2.0 °F /  -16.7 °C 1009.0 in /  34164.7 hPa SW 12.6 mph /  20.3 km/h 12.6 mph /  20.3 km/h 89 % 0.0 in /  0 mm
21:07 3.4 °F /  -15.9 °C 2.0 °F /  -16.7 °C 1009.0 in /  34164.7 hPa SW 12.6 mph /  20.3 km/h 12.6 mph /  20.3 km/h 90 % 0.3 in /  7.62 mm
21:12 3.4 °F /  -15.9 °C 2.0 °F /  -16.7 °C 1009.0 in /  34164.7 hPa SSW 16.9 mph /  27.2 km/h 16.9 mph /  27.2 km/h 91 % 0.3 in /  7.62 mm
21:17 3.3 °F /  -15.9 °C 2.0 °F /  -16.7 °C 1008.0 in /  34130.9 hPa SSW 19.5 mph /  31.4 km/h 19.5 mph /  31.4 km/h 92 % 0.3 in /  7.62 mm
21:22 3.3 °F /  -15.9 °C 3.0 °F /  -16.1 °C 1008.0 in /  34130.9 hPa SSW 19.5 mph /  31.4 km/h 19.5 mph /  31.4 km/h 93 % 0.5 in /  12.7 mm
21:27 3.3 °F /  -15.9 °C 3.0 °F /  -16.1 °C 1008.0 in /  34130.9 hPa SW 17.7 mph /  28.5 km/h 19.5 mph /  31.4 km/h 93 % 0.5 in /  12.7 mm
21:32 3.3 °F /  -15.9 °C 3.0 °F /  -16.1 °C 1008.0 in /  34130.9 hPa SSW 13.0 mph /  20.9 km/h 19.5 mph /  31.4 km/h 94 % 0.5 in /  12.7 mm
21:37 3.2 °F /  -16 °C 3.0 °F /  -16.1 °C 1008.0 in /  34130.9 hPa South 10.5 mph /  16.9 km/h 20.6 mph /  33.2 km/h 94 % 0.8 in /  20.32 mm
21:42 3.3 °F /  -15.9 °C 3.0 °F /  -16.1 °C 1008.0 in /  34130.9 hPa South 18.3 mph /  29.5 km/h 20.6 mph /  33.2 km/h 95 % 0.8 in /  20.32 mm
21:47 3.3 °F /  -15.9 °C 3.0 °F /  -16.1 °C 1007.0 in /  34097 hPa South 18.3 mph /  29.5 km/h 18.3 mph /  29.5 km/h 95 % 0.8 in /  20.32 mm
21:52 3.3 °F /  -15.9 °C 3.0 °F /  -16.1 °C 1007.0 in /  34097 hPa South 18.3 mph /  29.5 km/h 18.3 mph /  29.5 km/h 96 % 1.3 in /  33.02 mm
21:57 3.2 °F /  -16 °C 3.0 °F /  -16.1 °C 1007.0 in /  34097 hPa South 18.3 mph /  29.5 km/h 18.3 mph /  29.5 km/h 96 % 1.5 in /  38.1 mm
22:02 3.2 °F /  -16 °C 3.0 °F /  -16.1 °C 1007.0 in /  34097 hPa South 18.3 mph /  29.5 km/h 18.3 mph /  29.5 km/h 97 % 1.5 in /  38.1 mm
22:07 3.2 °F /  -16 °C 3.0 °F /  -16.1 °C 1007.0 in /  34097 hPa South 18.3 mph /  29.5 km/h 18.3 mph /  29.5 km/h 97 % 1.3 in /  33.02 mm
22:13 3.2 °F /  -16 °C 3.0 °F /  -16.1 °C 1007.0 in /  34097 hPa South 18.3 mph /  29.5 km/h 18.3 mph /  29.5 km/h 97 % 1.5 in /  38.1 mm
22:18 3.2 °F /  -16 °C 3.0 °F /  -16.1 °C 1007.0 in /  34097 hPa South 18.3 mph /  29.5 km/h 18.3 mph /  29.5 km/h 97 % 1.5 in /  38.1 mm
22:23 3.2 °F /  -16 °C 3.0 °F /  -16.1 °C 1007.0 in /  34097 hPa SW 21.2 mph /  34.1 km/h 21.2 mph /  34.1 km/h 98 % 1.3 in /  33.02 mm
22:28 3.2 °F /  -16 °C 3.0 °F /  -16.1 °C 1007.0 in /  34097 hPa SSW 28.5 mph /  45.9 km/h 28.5 mph /  45.9 km/h 98 % 1.3 in /  33.02 mm
22:33 3.1 °F /  -16.1 °C 3.0 °F /  -16.1 °C 1007.0 in /  34097 hPa SSW 19.5 mph /  31.4 km/h 28.5 mph /  45.9 km/h 98 % 0.8 in /  20.32 mm
22:34 3.1 °F /  -16.1 °C 3.0 °F /  -16.1 °C 1007.0 in /  34097 hPa SSW 28.5 mph /  45.9 km/h 28.5 mph /  45.9 km/h 98 % 0.8 in /  20.32 mm
22:39 3.1 °F /  -16.1 °C 3.0 °F /  -16.1 °C 1007.0 in /  34097 hPa SSW 21.9 mph /  35.2 km/h 28.5 mph /  45.9 km/h 98 % 0.8 in /  20.32 mm
22:44 3.1 °F /  -16.1 °C 3.0 °F /  -16.1 °C 1006.0 in /  34063.2 hPa South 15.8 mph /  25.4 km/h 32.0 mph /  51.5 km/h 98 % 1.3 in /  33.02 mm
22:49 3.1 °F /  -16.1 °C 3.0 °F /  -16.1 °C 1006.0 in /  34063.2 hPa South 15.8 mph /  25.4 km/h 32.0 mph /  51.5 km/h 98 % 1.0 in /  25.4 mm
22:54 3.1 °F /  -16.1 °C 3.0 °F /  -16.1 °C 1006.0 in /  34063.2 hPa South 15.8 mph /  25.4 km/h 32.0 mph /  51.5 km/h 98 % 1.0 in /  25.4 mm
22:59 3.1 °F /  -16.1 °C 3.0 °F /  -16.1 °C 1006.0 in /  34063.2 hPa South 15.8 mph /  25.4 km/h 15.8 mph /  25.4 km/h 98 % 0.8 in /  20.32 mm
23:04 3.1 °F /  -16.1 °C 3.0 °F /  -16.1 °C 1006.0 in /  34063.2 hPa South 15.8 mph /  25.4 km/h 15.8 mph /  25.4 km/h 98 % 0.8 in /  20.32 mm
23:09 3.1 °F /  -16.1 °C 3.0 °F /  -16.1 °C 1006.0 in /  34063.2 hPa South 15.8 mph /  25.4 km/h 15.8 mph /  25.4 km/h 98 % 0.8 in /  20.32 mm
23:14 3.1 °F /  -16.1 °C 3.0 °F /  -16.1 °C 1005.0 in /  34029.3 hPa South 15.8 mph /  25.4 km/h 15.8 mph /  25.4 km/h 98 % 0.3 in /  7.62 mm
23:19 3.1 °F /  -16.1 °C 3.0 °F /  -16.1 °C 1005.0 in /  34029.3 hPa South 15.8 mph /  25.4 km/h 15.8 mph /  25.4 km/h 98 % 0.3 in /  7.62 mm
23:24 3.1 °F /  -16.1 °C 3.0 °F /  -16.1 °C 1005.0 in /  34029.3 hPa South 15.8 mph /  25.4 km/h 15.8 mph /  25.4 km/h 98 % 0.3 in /  7.62 mm
23:29 3.1 °F /  -16.1 °C 3.0 °F /  -16.1 °C 1005.0 in /  34029.3 hPa South 15.8 mph /  25.4 km/h 15.8 mph /  25.4 km/h 98 % 0.3 in /  7.62 mm
23:34 3.1 °F /  -16.1 °C 3.0 °F /  -16.1 °C 1005.0 in /  34029.3 hPa South 15.8 mph /  25.4 km/h 15.8 mph /  25.4 km/h 98 % 0.3 in /  7.62 mm
23:39 3.2 °F /  -16 °C 3.0 °F /  -16.1 °C 1005.0 in /  34029.3 hPa South 15.8 mph /  25.4 km/h 15.8 mph /  25.4 km/h 98 % 0.3 in /  7.62 mm
23:44 3.2 °F /  -16 °C 3.0 °F /  -16.1 °C 1005.0 in /  34029.3 hPa South 15.8 mph /  25.4 km/h 15.8 mph /  25.4 km/h 98 % 0.0 in /  0 mm
23:49 3.2 °F /  -16 °C 3.0 °F /  -16.1 °C 1005.0 in /  34029.3 hPa South 15.8 mph /  25.4 km/h 15.8 mph /  25.4 km/h 98 % 0.0 in /  0 mm
23:54 3.2 °F /  -16 °C 3.0 °F /  -16.1 °C 1005.0 in /  34029.3 hPa South 15.8 mph /  25.4 km/h 15.8 mph /  25.4 km/h 98 % 0.0 in /  0 mm
Le Gheer Warneton
Courtoisie de Weather Underground - 2.25 mb

Mise a jour : 18/02/2018 06:15:11
Généré par Cumulus 1.9.4 (1099)